createdAt,value
2022-08-07T00:02:35.019Z,6.25
2022-08-07T00:04:04.367Z,5.13
2022-08-07T00:06:33.490Z,6.90
2022-08-07T00:09:16.885Z,8.68
2022-08-07T00:11:55.660Z,6.90
2022-08-07T00:14:30.207Z,5.68
2022-08-07T00:16:58.995Z,6.70
2022-08-07T00:19:25.885Z,5.22
2022-08-07T00:21:57.334Z,7.03
2022-08-07T00:24:29.261Z,6.40
2022-08-07T00:27:06.178Z,7.88
2022-08-07T00:29:36.921Z,4.13
2022-08-07T00:32:05.994Z,3.72
2022-08-07T00:34:35.435Z,6.50
2022-08-07T00:37:02.444Z,6.63
2022-08-07T00:39:31.941Z,7.03
2022-08-07T00:42:02.199Z,6.47
2022-08-07T00:44:33.360Z,5.45
2022-08-07T00:47:01.158Z,5.35
2022-08-07T00:50:19.311Z,7.95
2022-08-07T00:52:19.798Z,7.28
2022-08-07T00:54:46.972Z,5.70
2022-08-07T00:57:25.272Z,6.60
2022-08-07T00:59:53.167Z,7.65
2022-08-07T01:02:28.326Z,10.48
2022-08-07T01:04:58.313Z,6.75
2022-08-07T01:07:27.554Z,5.53
2022-08-07T01:10:07.126Z,7.32
2022-08-07T01:12:39.105Z,7.93
2022-08-07T01:15:06.701Z,7.18
2022-08-07T01:17:39.977Z,8.57
2022-08-07T01:20:17.145Z,6.83
2022-08-07T01:22:54.354Z,7.57
2022-08-07T01:25:53.669Z,6.15
2022-08-07T01:28:18.589Z,8.65
2022-08-07T01:30:45.317Z,8.63
2022-08-07T01:33:13.635Z,6.80
2022-08-07T01:35:53.234Z,5.88
2022-08-07T01:38:25.168Z,6.88
2022-08-07T01:40:54.898Z,6.97
2022-08-07T01:43:22.289Z,6.60
2022-08-07T01:45:54.597Z,7.87
2022-08-07T01:48:30.282Z,8.05
2022-08-07T01:51:24.474Z,7.35
2022-08-07T01:54:12.660Z,5.40
2022-08-07T01:57:03.791Z,6.82
2022-08-07T01:59:36.804Z,5.40
2022-08-07T02:03:11.271Z,6.53
2022-08-07T02:05:06.494Z,5.63
2022-08-07T02:07:50.165Z,7.88
2022-08-07T02:10:19.502Z,5.57
2022-08-07T02:12:50.039Z,7.60
2022-08-07T02:15:21.592Z,6.93
2022-08-07T02:17:51.825Z,6.90
2022-08-07T02:20:23.688Z,4.90
2022-08-07T02:22:55.119Z,8.85
2022-08-07T02:26:10.261Z,9.03
2022-08-07T02:28:11.298Z,6.22
2022-08-07T02:30:38.892Z,7.63
2022-08-07T02:33:09.511Z,6.20
2022-08-07T02:36:29.286Z,6.68
2022-08-07T02:38:31.847Z,8.07
2022-08-07T02:40:59.777Z,9.63
2022-08-07T02:43:28.310Z,7.47
2022-08-07T02:46:02.026Z,6.78
2022-08-07T02:48:30.296Z,7.50
2022-08-07T02:50:59.334Z,7.13
2022-08-07T02:53:30.064Z,7.35
2022-08-07T02:56:04.416Z,8.02
2022-08-07T02:58:34.146Z,6.25
2022-08-07T03:01:02.193Z,8.20
2022-08-07T03:03:50.083Z,6.40
2022-08-07T03:06:26.240Z,6.70
2022-08-07T03:09:02.128Z,5.38
2022-08-07T03:11:29.612Z,5.82
2022-08-07T03:14:01.783Z,5.55
2022-08-07T03:16:30.433Z,7.60
2022-08-07T03:18:58.293Z,6.35
2022-08-07T03:21:25.362Z,9.13
2022-08-07T03:24:19.469Z,8.10
2022-08-07T03:26:50.981Z,7.55
2022-08-07T03:29:20.808Z,7.13
2022-08-07T03:31:50.022Z,8.73
2022-08-07T03:34:18.548Z,8.30
2022-08-07T03:36:51.091Z,7.53
2022-08-07T03:39:18.090Z,5.22
2022-08-07T03:42:13.315Z,6.30
2022-08-07T03:44:40.207Z,6.47
2022-08-07T03:47:10.824Z,7.40
2022-08-07T03:49:42.253Z,6.68
2022-08-07T03:52:22.403Z,6.32
2022-08-07T03:54:58.973Z,6.17
2022-08-07T03:58:32.572Z,6.35
2022-08-07T04:00:21.094Z,5.78
2022-08-07T04:02:56.865Z,7.28
2022-08-07T04:05:28.736Z,4.82
2022-08-07T04:08:06.733Z,7.47
2022-08-07T04:10:33.435Z,5.53
2022-08-07T04:13:07.620Z,4.20
2022-08-07T04:15:43.459Z,6.65
2022-08-07T04:18:57.946Z,7.72
2022-08-07T04:21:02.628Z,6.80
2022-08-07T04:23:43.667Z,8.00
2022-08-07T04:26:16.948Z,7.93
2022-08-07T04:28:48.552Z,7.90
2022-08-07T04:31:20.196Z,6.95
2022-08-07T04:34:03.167Z,8.33
2022-08-07T04:36:29.727Z,5.70
2022-08-07T04:38:56.271Z,5.78
2022-08-07T04:41:24.914Z,9.55
2022-08-07T04:44:11.994Z,6.25
2022-08-07T04:46:59.629Z,8.07
2022-08-07T04:50:06.482Z,6.32
2022-08-07T04:52:51.905Z,7.80
2022-08-07T04:58:09.702Z,8.40
2022-08-07T05:00:07.856Z,7.55
2022-08-07T05:02:01.682Z,7.50
2022-08-07T05:04:47.070Z,5.72
2022-08-07T05:07:30.663Z,8.00
2022-08-07T05:10:49.662Z,6.60
2022-08-07T05:14:51.993Z,5.13
2022-08-07T05:16:24.288Z,5.40
2022-08-07T05:18:57.237Z,5.18
2022-08-07T05:22:00.444Z,6.60
2022-08-07T05:24:17.227Z,5.10
2022-08-07T05:26:47.192Z,7.78
2022-08-07T05:29:15.897Z,5.47
2022-08-07T05:31:47.576Z,7.68
2022-08-07T05:34:19.953Z,7.50
2022-08-07T05:36:54.025Z,6.13
2022-08-07T05:40:05.382Z,5.60
2022-08-07T05:42:11.939Z,6.17
2022-08-07T05:44:46.440Z,5.45
2022-08-07T05:47:18.592Z,7.72
2022-08-07T05:49:52.362Z,5.20
2022-08-07T05:52:20.053Z,4.57
2022-08-07T05:54:55.640Z,4.43
2022-08-07T05:57:26.575Z,5.88
2022-08-07T06:00:00.307Z,5.05
2022-08-07T06:02:31.488Z,5.63
2022-08-07T06:05:03.814Z,4.63
2022-08-07T06:08:13.405Z,5.93
2022-08-07T06:10:18.794Z,5.40
2022-08-07T06:12:47.229Z,7.72
2022-08-07T06:15:16.111Z,5.13
2022-08-07T06:17:53.583Z,5.90
2022-08-07T06:20:25.605Z,4.47
2022-08-07T06:23:25.055Z,4.82
2022-08-07T06:25:54.345Z,3.55
2022-08-07T06:28:27.739Z,5.20
2022-08-07T06:30:55.623Z,5.97
2022-08-07T06:33:22.931Z,5.00
2022-08-07T06:36:12.378Z,4.53
2022-08-07T06:38:36.448Z,5.03
2022-08-07T06:41:18.262Z,6.63
2022-08-07T06:44:10.877Z,5.35
2022-08-07T06:46:38.303Z,3.90
2022-08-07T06:49:07.200Z,6.10
2022-08-07T06:51:49.572Z,3.35
2022-08-07T06:55:34.450Z,5.78
2022-08-07T06:57:07.409Z,5.75
2022-08-07T07:00:15.098Z,3.77
2022-08-07T07:02:48.818Z,4.72
2022-08-07T07:05:12.598Z,2.70
2022-08-07T07:07:59.550Z,2.80
2022-08-07T07:10:31.156Z,4.28
2022-08-07T07:13:04.609Z,5.57
2022-08-07T07:15:37.633Z,3.90
2022-08-07T07:18:09.367Z,3.78
2022-08-07T07:20:38.493Z,6.63
2022-08-07T07:24:08.909Z,2.72
2022-08-07T07:26:32.444Z,5.27
2022-08-07T07:29:56.341Z,5.80
2022-08-07T07:31:56.111Z,3.70
2022-08-07T07:34:30.996Z,3.95
2022-08-07T07:37:14.951Z,4.13
2022-08-07T07:39:54.252Z,4.77
2022-08-07T07:42:25.785Z,3.58
2022-08-07T07:45:02.047Z,4.13
2022-08-07T07:47:29.569Z,4.90
2022-08-07T07:50:36.178Z,4.30
2022-08-07T07:52:46.957Z,4.10
2022-08-07T07:55:14.608Z,3.53
2022-08-07T07:57:51.560Z,4.18
2022-08-07T08:00:29.087Z,4.15
2022-08-07T08:03:17.013Z,5.05
2022-08-07T08:05:56.835Z,3.40
2022-08-07T08:08:34.446Z,5.40
2022-08-07T08:11:03.784Z,3.53
2022-08-07T08:13:36.772Z,4.20
2022-08-07T08:16:20.204Z,2.13
2022-08-07T08:18:54.623Z,3.90
2022-08-07T08:21:55.914Z,2.35
2022-08-07T08:24:57.382Z,1.63
2022-08-07T08:27:37.110Z,2.58
2022-08-07T08:30:14.215Z,5.30
2022-08-07T08:32:49.012Z,2.20
2022-08-07T08:35:20.499Z,3.58
2022-08-07T08:38:01.161Z,6.03
2022-08-07T08:40:37.854Z,6.95
2022-08-07T08:43:42.031Z,2.95
2022-08-07T08:46:28.386Z,3.10
2022-08-07T08:49:10.199Z,2.72
2022-08-07T08:54:36.836Z,3.63
2022-08-07T08:57:08.779Z,2.35
2022-08-07T08:59:51.301Z,3.03
2022-08-07T09:02:39.170Z,2.65
2022-08-07T09:05:10.049Z,2.60
2022-08-07T09:07:46.481Z,3.17
2022-08-07T09:10:45.185Z,3.35
2022-08-07T09:13:38.265Z,4.03
2022-08-07T09:16:30.038Z,3.63
2022-08-07T09:19:51.866Z,5.45
2022-08-07T09:24:27.987Z,3.50
2022-08-07T09:25:20.304Z,4.80
2022-08-07T09:28:00.585Z,2.80
2022-08-07T09:30:54.727Z,4.65
2022-08-07T09:33:52.376Z,3.17
2022-08-07T09:36:35.646Z,4.10
2022-08-07T09:39:55.455Z,3.05
2022-08-07T09:42:50.267Z,4.00
2022-08-07T09:47:50.136Z,1.40
2022-08-07T09:48:56.097Z,5.55
2022-08-07T09:52:09.661Z,3.05
2022-08-07T09:54:59.595Z,3.83
2022-08-07T09:57:46.548Z,4.90
2022-08-07T10:00:16.601Z,4.75
2022-08-07T10:04:05.253Z,3.42
2022-08-07T10:06:24.444Z,3.35
2022-08-07T10:09:08.664Z,2.65
2022-08-07T10:12:01.555Z,5.43
2022-08-07T10:14:47.527Z,2.72
2022-08-07T10:18:01.027Z,2.33
2022-08-07T10:20:50.335Z,5.65
2022-08-07T10:24:05.347Z,3.42
2022-08-07T10:26:38.543Z,3.17
2022-08-07T10:29:45.654Z,2.28
2022-08-07T10:32:53.517Z,4.32
2022-08-07T10:35:55.638Z,3.95
2022-08-07T10:38:36.044Z,2.97
2022-08-07T10:41:46.396Z,5.33
2022-08-07T10:44:16.575Z,4.07
2022-08-07T10:47:02.060Z,3.83
2022-08-07T10:49:49.635Z,2.58
2022-08-07T10:52:40.203Z,2.53
2022-08-07T10:55:26.771Z,3.23
2022-08-07T10:59:06.641Z,4.18
2022-08-07T11:02:05.422Z,7.72
2022-08-07T11:04:57.866Z,3.47
2022-08-07T11:07:58.853Z,2.92
2022-08-07T11:10:39.336Z,3.63
2022-08-07T11:14:45.968Z,4.85
2022-08-07T11:16:21.977Z,4.30
2022-08-07T11:19:11.968Z,4.35
2022-08-07T11:22:00.883Z,2.95
2022-08-07T11:24:56.102Z,3.30
2022-08-07T11:28:01.376Z,6.18
2022-08-07T11:30:41.357Z,3.15
2022-08-07T11:33:58.593Z,4.47
2022-08-07T11:36:44.202Z,5.47
2022-08-07T11:39:19.933Z,5.73
2022-08-07T11:42:23.428Z,5.93
2022-08-07T11:45:09.202Z,7.40
2022-08-07T11:47:58.995Z,4.75
2022-08-07T11:50:32.226Z,6.30
2022-08-07T11:53:35.257Z,6.03
2022-08-07T11:56:25.274Z,3.60
2022-08-07T12:00:08.330Z,3.78
2022-08-07T12:02:30.336Z,4.68
2022-08-07T12:05:15.398Z,6.97
2022-08-07T12:08:04.007Z,6.60
2022-08-07T12:10:41.992Z,4.07
2022-08-07T12:13:18.644Z,4.63
2022-08-07T12:16:09.300Z,4.50
2022-08-07T12:18:53.331Z,7.75
2022-08-07T12:21:56.030Z,6.07
2022-08-07T12:25:17.995Z,6.97
2022-08-07T12:28:04.041Z,6.35
2022-08-07T12:30:39.069Z,8.43
2022-08-07T12:33:28.427Z,17.30
2022-08-07T12:36:15.747Z,5.27
2022-08-07T12:38:47.495Z,3.95
2022-08-07T12:41:42.812Z,3.75
2022-08-07T12:44:17.374Z,5.28
2022-08-07T12:46:53.358Z,5.18
2022-08-07T12:49:48.511Z,5.47
2022-08-07T12:52:28.956Z,6.05
2022-08-07T12:56:03.558Z,5.35
2022-08-07T12:58:39.449Z,5.95
2022-08-07T13:01:08.003Z,4.30
2022-08-07T13:04:18.879Z,4.43
2022-08-07T13:08:12.931Z,4.45
2022-08-07T13:11:21.902Z,9.52
2022-08-07T13:14:03.224Z,3.95
2022-08-07T13:16:36.719Z,10.73
2022-08-07T13:19:50.764Z,5.10
2022-08-07T13:22:32.649Z,3.83
2022-08-07T13:25:23.993Z,8.27
2022-08-07T13:28:12.775Z,6.10
2022-08-07T13:30:48.863Z,8.48
2022-08-07T13:34:30.796Z,14.70
2022-08-07T13:36:27.628Z,6.93
2022-08-07T13:39:11.299Z,4.75
2022-08-07T13:41:47.449Z,6.57
2022-08-07T13:44:18.654Z,7.30
2022-08-07T13:46:56.787Z,4.43
2022-08-07T13:50:35.277Z,7.20
2022-08-07T13:52:26.437Z,9.32
2022-08-07T13:54:59.058Z,6.40
2022-08-07T13:57:37.609Z,2.15
2022-08-07T14:00:13.401Z,6.33
2022-08-07T14:02:55.873Z,8.13
2022-08-07T14:05:37.414Z,8.07
2022-08-07T14:08:07.235Z,4.68
2022-08-07T14:10:42.008Z,3.42
2022-08-07T14:13:16.251Z,6.83
2022-08-07T14:15:44.388Z,4.75
2022-08-07T14:18:29.827Z,3.90
2022-08-07T14:22:41.178Z,4.25
2022-08-07T14:24:03.771Z,4.57
2022-08-07T14:26:36.615Z,4.30
2022-08-07T14:30:04.819Z,7.95
2022-08-07T14:31:56.471Z,4.43
2022-08-07T14:34:29.594Z,5.60
2022-08-07T14:36:56.703Z,3.50
2022-08-07T14:40:17.751Z,4.63
2022-08-07T14:42:18.669Z,4.13
2022-08-07T14:44:53.613Z,3.70
2022-08-07T14:47:23.215Z,4.40
2022-08-07T14:49:57.099Z,2.95
2022-08-07T14:52:28.711Z,4.07
2022-08-07T14:54:58.548Z,7.00
2022-08-07T14:57:54.858Z,7.50
2022-08-07T15:00:20.605Z,6.35
2022-08-07T15:02:58.038Z,5.60
2022-08-07T15:05:26.915Z,9.50
2022-08-07T15:07:58.356Z,4.65
2022-08-07T15:10:29.642Z,4.65
2022-08-07T15:13:12.316Z,5.90
2022-08-07T15:15:43.027Z,5.63
2022-08-07T15:21:58.960Z,5.30
2022-08-07T15:25:16.042Z,4.32
2022-08-07T15:27:04.311Z,6.20
2022-08-07T15:30:09.799Z,5.00
2022-08-07T15:33:01.255Z,3.57
2022-08-07T15:38:51.268Z,6.40
2022-08-07T15:41:24.074Z,5.78
2022-08-07T15:44:07.796Z,7.28
2022-08-07T15:46:48.588Z,4.33
2022-08-07T15:52:10.720Z,6.30
2022-08-07T15:54:42.152Z,6.53
2022-08-07T15:57:27.893Z,7.55
2022-08-07T15:59:59.514Z,7.07
2022-08-07T16:02:38.986Z,6.57
2022-08-07T16:05:15.288Z,7.93
2022-08-07T16:08:33.521Z,4.75
2022-08-07T16:11:03.720Z,6.70
2022-08-07T16:13:57.757Z,4.70
2022-08-07T16:16:49.425Z,8.00
2022-08-07T16:19:58.792Z,7.10
2022-08-07T16:22:54.294Z,8.80
2022-08-07T16:25:54.513Z,6.38
2022-08-07T16:30:05.492Z,5.07
2022-08-07T16:31:51.784Z,5.10
2022-08-07T16:34:48.579Z,6.38
2022-08-07T16:38:05.922Z,4.15
2022-08-07T16:40:32.070Z,4.35
2022-08-07T16:43:07.900Z,7.63
2022-08-07T16:46:47.284Z,5.10
2022-08-07T16:50:20.741Z,7.85
2022-08-07T16:52:52.681Z,10.55
2022-08-07T16:55:47.949Z,9.15
2022-08-07T16:59:10.244Z,7.10
2022-08-07T17:01:35.951Z,6.43
2022-08-07T17:04:12.289Z,5.55
2022-08-07T17:07:02.993Z,4.55
2022-08-07T17:10:06.850Z,7.05
2022-08-07T17:12:53.848Z,6.97
2022-08-07T17:15:44.422Z,4.85
2022-08-07T17:18:25.951Z,4.95
2022-08-07T17:20:53.892Z,6.05
2022-08-07T17:23:32.645Z,4.30
2022-08-07T17:26:30.579Z,4.47
2022-08-07T17:30:15.609Z,6.63
2022-08-07T17:33:04.709Z,4.95
2022-08-07T17:36:20.592Z,8.65
2022-08-07T17:39:10.073Z,6.95
2022-08-07T17:42:04.863Z,8.23
2022-08-07T17:44:50.571Z,5.95
2022-08-07T17:47:54.137Z,8.75
2022-08-07T17:50:30.469Z,6.15
2022-08-07T17:53:01.080Z,9.52
2022-08-07T17:56:00.680Z,5.30
2022-08-07T17:58:53.091Z,6.53
2022-08-07T18:01:36.235Z,7.13
2022-08-07T18:04:24.696Z,6.63
2022-08-07T18:07:20.262Z,4.60
2022-08-07T18:10:06.648Z,7.43
2022-08-07T18:13:10.968Z,6.15
2022-08-07T18:16:05.135Z,5.70
2022-08-07T18:21:02.816Z,8.90
2022-08-07T18:21:53.547Z,7.10
2022-08-07T18:24:51.653Z,5.67
2022-08-07T18:27:39.111Z,8.15
2022-08-07T18:30:31.253Z,6.18
2022-08-07T18:33:15.908Z,6.57
2022-08-07T18:36:32.973Z,4.70
2022-08-07T18:40:07.210Z,5.97
2022-08-07T18:42:28.577Z,8.48
2022-08-07T18:45:44.620Z,6.80
2022-08-07T18:48:38.206Z,9.27
2022-08-07T18:52:35.204Z,6.70
2022-08-07T18:54:30.597Z,7.63
2022-08-07T18:57:31.031Z,7.22
2022-08-07T19:00:32.440Z,11.73
2022-08-07T19:03:37.797Z,7.43
2022-08-07T19:06:16.456Z,7.20
2022-08-07T19:09:09.354Z,6.67
2022-08-07T19:12:19.176Z,7.07
2022-08-07T19:16:03.054Z,9.30
2022-08-07T19:18:03.860Z,6.78
2022-08-07T19:21:09.242Z,5.90
2022-08-07T19:23:58.451Z,8.53
2022-08-07T19:26:55.563Z,5.93
2022-08-07T19:31:04.543Z,6.75
2022-08-07T19:32:42.354Z,7.10
2022-08-07T19:35:12.051Z,11.88
2022-08-07T19:37:56.533Z,8.53
2022-08-07T19:40:31.739Z,7.65
2022-08-07T19:43:02.380Z,7.13
2022-08-07T19:46:07.352Z,9.73
2022-08-07T19:48:24.166Z,12.02
2022-08-07T19:50:53.459Z,9.67
2022-08-07T19:54:34.119Z,16.10
2022-08-07T19:57:52.259Z,12.57
2022-08-07T19:58:57.181Z,13.18
2022-08-07T20:01:52.324Z,14.93
2022-08-07T20:04:12.530Z,15.33
2022-08-07T20:06:58.323Z,12.45
2022-08-07T20:10:36.398Z,15.82
2022-08-07T20:12:32.323Z,14.05
2022-08-07T20:15:05.166Z,15.02
2022-08-07T20:17:45.460Z,12.27
2022-08-07T20:20:29.694Z,10.60
2022-08-07T20:23:01.426Z,10.32
2022-08-07T20:25:50.927Z,13.45
2022-08-07T20:28:19.793Z,12.27
2022-08-07T20:30:47.084Z,8.33
2022-08-07T20:33:36.271Z,11.60
2022-08-07T20:36:06.306Z,5.80
2022-08-07T20:38:33.854Z,7.88
2022-08-07T20:41:03.728Z,9.32
2022-08-07T20:43:33.990Z,7.20
2022-08-07T20:46:26.963Z,10.02
2022-08-07T20:49:53.915Z,8.70
2022-08-07T20:51:40.442Z,7.35
2022-08-07T20:54:30.351Z,10.40
2022-08-07T20:57:04.560Z,7.53
2022-08-07T21:00:08.178Z,8.63
2022-08-07T21:02:40.634Z,11.48
2022-08-07T21:05:42.775Z,9.35
2022-08-07T21:08:17.993Z,10.00
2022-08-07T21:10:48.953Z,7.23
2022-08-07T21:13:24.626Z,9.88
2022-08-07T21:16:09.163Z,10.38
2022-08-07T21:18:41.292Z,7.43
2022-08-07T21:21:16.162Z,10.77
2022-08-07T21:24:01.624Z,8.57
2022-08-07T21:26:59.511Z,9.25
2022-08-07T21:29:37.326Z,8.88
2022-08-07T21:32:46.608Z,9.13
2022-08-07T21:35:10.814Z,9.05
2022-08-07T21:37:59.087Z,8.33
2022-08-07T21:40:46.262Z,9.85
2022-08-07T21:43:47.451Z,13.15
2022-08-07T21:46:31.705Z,8.95
2022-08-07T21:49:14.975Z,9.80
2022-08-07T21:51:54.946Z,9.47
2022-08-07T21:54:26.500Z,9.55
2022-08-07T21:56:59.956Z,10.80
2022-08-07T21:59:36.337Z,9.35
2022-08-07T22:02:31.696Z,9.57
2022-08-07T22:05:00.858Z,12.83
2022-08-07T22:07:58.546Z,10.63
2022-08-07T22:10:24.531Z,10.68
2022-08-07T22:12:54.168Z,9.52
2022-08-07T22:16:38.995Z,8.80
2022-08-07T22:18:16.838Z,9.90
2022-08-07T22:20:54.067Z,8.68
2022-08-07T22:23:24.572Z,6.60
2022-08-07T22:26:01.750Z,10.07
2022-08-07T22:28:40.449Z,7.50
2022-08-07T22:31:56.306Z,10.03
2022-08-07T22:34:33.235Z,8.32
2022-08-07T22:37:22.971Z,9.98
2022-08-07T22:40:01.661Z,8.05
2022-08-07T22:42:34.269Z,8.52
2022-08-07T22:45:04.087Z,10.23
2022-08-07T22:47:59.426Z,9.95
2022-08-07T22:50:33.514Z,9.07
2022-08-07T22:54:05.661Z,7.07
2022-08-07T22:56:23.944Z,8.07
2022-08-07T22:59:33.073Z,9.07
2022-08-07T23:02:18.207Z,8.32
2022-08-07T23:04:56.843Z,12.88
2022-08-07T23:07:57.083Z,9.43
2022-08-07T23:10:37.796Z,9.30
2022-08-07T23:13:19.525Z,9.13
2022-08-07T23:16:07.350Z,8.98
2022-08-07T23:19:38.787Z,10.52
2022-08-07T23:22:31.819Z,9.90
2022-08-07T23:25:16.553Z,9.32
2022-08-07T23:28:21.190Z,8.80
2022-08-07T23:31:11.474Z,8.20
2022-08-07T23:34:36.193Z,9.77
2022-08-07T23:38:01.486Z,8.57
2022-08-07T23:40:43.184Z,6.60
2022-08-07T23:43:40.541Z,6.87
2022-08-07T23:46:44.684Z,6.82
2022-08-07T23:49:49.809Z,7.75
2022-08-07T23:53:00.214Z,9.10
2022-08-07T23:55:53.197Z,8.98
2022-08-07T23:58:37.991Z,7.07
